Time,TemperatureF,DewpointF,PressureIn,WindDirection,WindDirectionDegrees,WindSpeedMPH,WindSpeedGustMPH,Humidity,HourlyPrecipIn,Conditions,Clouds,dailyrainin,SoftwareType,DateUTC
2013-02-10 00:00:00,43.1,30.6,30.21,South,184,0.0,3.0,61,0.00,,---,0.00,VWS V12.07,2013-02-10 05:00:00,
2013-02-10 00:30:00,43.1,28.0,30.19,South,181,0.0,0.0,55,0.00,,---,0.00,VWS V12.07,2013-02-10 05:30:00,
2013-02-10 01:00:00,43.5,27.5,30.20,South,171,0.0,1.0,53,0.00,,---,0.00,VWS V12.07,2013-02-10 06:00:00,
2013-02-10 01:30:00,43.3,27.8,30.18,SSW,211,1.0,2.0,54,0.00,,---,0.00,VWS V12.07,2013-02-10 06:30:00,
2013-02-10 02:00:00,41.6,27.1,30.19,SW,215,2.0,2.0,56,0.00,,---,0.00,VWS V12.07,2013-02-10 07:00:00,
2013-02-10 02:30:00,44.5,27.0,30.18,SSW,205,2.0,2.0,50,0.00,,---,0.00,VWS V12.07,2013-02-10 07:30:00,
2013-02-10 03:00:00,44.3,26.9,30.17,South,170,0.0,0.0,50,0.00,,---,0.00,VWS V12.07,2013-02-10 08:00:00,
2013-02-10 03:30:00,42.9,32.3,30.19,South,179,0.0,0.0,66,0.00,,---,0.00,VWS V12.07,2013-02-10 08:30:00,
2013-02-10 04:00:00,44.8,29.2,30.20,SW,231,4.0,4.0,54,0.00,,---,0.00,VWS V12.07,2013-02-10 09:00:00,
2013-02-10 04:30:00,45.8,29.7,30.18,SSW,213,0.0,2.0,53,0.00,,---,0.00,VWS V12.07,2013-02-10 09:30:00,
2013-02-10 05:00:00,44.9,30.2,30.20,SSW,209,1.0,1.0,56,0.00,,---,0.00,VWS V12.07,2013-02-10 10:00:00,
2013-02-10 05:30:00,44.6,25.1,30.22,South,178,4.0,4.0,46,0.00,,---,0.00,VWS V12.07,2013-02-10 10:30:00,
2013-02-10 06:00:00,44.8,25.3,30.22,South,188,0.0,3.0,46,0.00,,---,0.00,VWS V12.07,2013-02-10 11:00:00,
2013-02-10 06:30:00,43.8,27.3,30.22,SSW,207,0.0,1.0,52,0.00,,---,0.00,VWS V12.07,2013-02-10 11:30:00,
2013-02-10 07:00:00,43.2,27.2,30.23,NW,313,0.0,2.0,53,0.00,,---,0.00,VWS V12.07,2013-02-10 12:00:00,
2013-02-10 07:30:00,42.9,25.1,30.23,NE,44,1.0,2.0,49,0.00,,---,0.00,VWS V12.07,2013-02-10 12:30:00,
2013-02-10 08:00:00,44.3,25.4,30.21,SW,215,0.0,6.0,47,0.00,,---,0.00,VWS V12.07,2013-02-10 13:00:00,
2013-02-10 08:30:00,45.5,27.0,30.22,South,190,5.0,5.0,48,0.00,,---,0.00,VWS V12.07,2013-02-10 13:30:00,
2013-02-10 09:00:00,45.5,26.5,30.24,WSW,251,1.0,5.0,47,0.00,,---,0.00,VWS V12.07,2013-02-10 14:00:00,
2013-02-10 09:30:00,46.0,26.4,30.26,SSW,199,2.0,9.0,46,0.00,,---,0.00,VWS V12.07,2013-02-10 14:30:00,
2013-02-10 10:00:00,46.1,24.9,30.26,South,174,5.0,14.0,43,0.00,,---,0.00,VWS V12.07,2013-02-10 15:00:00,
2013-02-10 10:30:00,46.5,27.4,30.24,WSW,238,3.0,6.0,47,0.00,,---,0.00,VWS V12.07,2013-02-10 15:30:00,
2013-02-10 11:00:00,47.4,26.0,30.24,SSW,200,3.0,12.0,43,0.00,,---,0.00,VWS V12.07,2013-02-10 16:00:00,
2013-02-10 11:30:00,50.4,25.1,30.21,West,278,0.0,12.0,37,0.00,,---,0.00,VWS V12.07,2013-02-10 16:30:00,
2013-02-10 12:00:00,50.8,24.8,30.20,SW,229,4.0,12.0,36,0.00,,---,0.00,VWS V12.07,2013-02-10 17:00:00,
2013-02-10 12:30:00,50.8,22.0,30.16,SSW,200,1.0,19.0,32,0.00,,---,0.00,VWS V12.07,2013-02-10 17:30:00,
2013-02-10 13:00:00,52.3,21.0,30.13,SW,218,1.0,7.0,29,0.00,,---,0.00,VWS V12.07,2013-02-10 18:00:00,
2013-02-10 13:30:00,52.3,23.3,30.15,SW,225,3.0,6.0,32,0.00,,---,0.00,VWS V12.07,2013-02-10 18:30:00,
2013-02-10 14:00:00,52.3,30.5,30.09,WSW,237,3.0,10.0,43,0.00,,---,0.00,VWS V12.07,2013-02-10 19:00:00,
2013-02-10 14:30:00,51.4,35.3,30.08,South,189,15.0,15.0,54,0.00,,---,0.00,VWS V12.07,2013-02-10 19:30:00,
2013-02-10 15:00:00,50.4,36.2,30.10,SSW,195,2.0,5.0,58,0.00,,---,0.00,VWS V12.07,2013-02-10 20:00:00,
2013-02-10 15:30:00,48.8,38.7,30.07,East,90,1.0,5.0,68,0.01,,---,0.01,VWS V12.07,2013-02-10 20:30:00,
2013-02-10 16:00:00,47.0,41.2,30.07,NW,305,0.0,3.0,80,0.01,,---,0.02,VWS V12.07,2013-02-10 21:00:00,
2013-02-10 16:30:00,45.7,42.9,30.09,South,177,0.0,0.0,90,0.05,,---,0.06,VWS V12.07,2013-02-10 21:30:00,
2013-02-10 17:00:00,44.8,43.2,30.07,NW,304,0.0,0.0,94,0.20,,---,0.21,VWS V12.07,2013-02-10 22:00:00,
2013-02-10 17:30:00,44.8,43.7,30.09,NW,321,0.0,0.0,96,0.30,,---,0.36,VWS V12.07,2013-02-10 22:30:00,
2013-02-10 18:00:00,44.5,43.7,30.09,SW,227,0.0,2.0,97,0.30,,---,0.49,VWS V12.07,2013-02-10 23:00:00,
2013-02-10 18:30:00,44.6,44.1,30.12,NNE,22,0.0,1.0,98,0.26,,---,0.62,VWS V12.07,2013-02-10 23:30:00,
2013-02-10 19:00:00,44.5,44.0,30.13,NNE,22,0.0,0.0,98,0.21,,---,0.69,VWS V12.07,2013-02-11 00:00:00,
2013-02-10 19:30:00,45.1,44.8,30.15,ESE,119,0.0,2.0,99,0.15,,---,0.76,VWS V12.07,2013-02-11 00:30:00,
2013-02-10 20:00:00,47.0,47.0,30.14,NNW,334,0.0,2.0,100,0.14,,---,0.81,VWS V12.07,2013-02-11 01:00:00,
2013-02-10 20:30:00,47.7,47.7,30.12,ENE,61,2.0,4.0,100,0.09,,---,0.85,VWS V12.07,2013-02-11 01:30:00,
2013-02-10 21:00:00,48.9,48.6,30.08,ENE,69,0.0,11.0,99,0.10,,---,0.90,VWS V12.07,2013-02-11 02:00:00,
2013-02-10 21:30:00,49.9,49.4,30.06,West,265,3.0,6.0,98,0.10,,---,0.94,VWS V12.07,2013-02-11 02:30:00,
2013-02-10 22:00:00,50.7,49.6,30.03,ENE,57,3.0,13.0,96,0.07,,---,0.96,VWS V12.07,2013-02-11 03:00:00,
2013-02-10 22:30:00,51.1,49.7,30.02,SW,224,4.0,20.0,95,0.02,,---,0.96,VWS V12.07,2013-02-11 03:30:00,
2013-02-10 23:00:00,51.4,49.7,30.02,South,175,2.0,9.0,94,0.00,,---,0.96,VWS V12.07,2013-02-11 04:00:00,
2013-02-10 23:30:00,51.1,49.7,30.00,SW,236,1.0,10.0,95,0.00,,---,0.96,VWS V12.07,2013-02-11 04:30:00,